createdAt,value
2019-02-16T00:03:31.956Z,102241.61
2019-02-16T00:08:38.691Z,102239.14
2019-02-16T00:13:45.293Z,102238.94
2019-02-16T00:18:51.236Z,102241.66
2019-02-16T00:23:57.947Z,102239.08
2019-02-16T00:29:03.727Z,102224.20
2019-02-16T00:34:09.495Z,102222.72
2019-02-16T00:39:15.228Z,102218.68
2019-02-16T00:44:21.592Z,102213.73
2019-02-16T00:49:27.599Z,102209.66
2019-02-16T00:54:34.417Z,102213.20
2019-02-16T00:59:40.672Z,102213.77
2019-02-16T01:04:46.329Z,102206.56
2019-02-16T01:09:52.475Z,102202.41
2019-02-16T01:14:58.513Z,102192.86
2019-02-16T01:20:06.829Z,102189.98
2019-02-16T01:25:14.303Z,102182.68
2019-02-16T01:30:20.733Z,102174.84
2019-02-16T01:35:26.297Z,102171.20
2019-02-16T01:40:32.734Z,102168.58
2019-02-16T01:45:39.128Z,102160.47
2019-02-16T01:50:45.163Z,102151.34
2019-02-16T01:55:51.592Z,102149.95
2019-02-16T02:00:57.760Z,102141.73
2019-02-16T02:06:04.619Z,102133.24
2019-02-16T02:11:10.824Z,102126.06
2019-02-16T02:16:17.064Z,102123.18
2019-02-16T02:21:23.216Z,102115.63
2019-02-16T02:26:29.134Z,102112.51
2019-02-16T02:31:37.456Z,102113.55
2019-02-16T02:36:44.034Z,102108.02
2019-02-16T02:41:49.590Z,102106.25
2019-02-16T02:46:55.451Z,102101.00
2019-02-16T02:52:01.490Z,102092.41
2019-02-16T02:57:07.203Z,102091.31
2019-02-16T03:02:14.926Z,102090.81
2019-02-16T03:07:20.577Z,102092.87
2019-02-16T03:12:26.621Z,102087.68
2019-02-16T03:17:32.931Z,102085.83
2019-02-16T03:23:16.331Z,102080.37
2019-02-16T03:28:34.470Z,102078.53
2019-02-16T03:33:43.519Z,102075.89
2019-02-16T03:38:58.062Z,102069.89
2019-02-16T03:44:04.147Z,102072.62
2019-02-16T03:49:10.668Z,102065.44
2019-02-16T03:54:17.913Z,102062.06
2019-02-16T03:59:23.648Z,102059.55
2019-02-16T04:04:29.369Z,102060.45
2019-02-16T04:09:35.382Z,102058.23
2019-02-16T04:14:40.946Z,102060.36
2019-02-16T04:19:46.850Z,102053.13
2019-02-16T04:24:53.025Z,102044.14
2019-02-16T04:29:59.251Z,102037.11
2019-02-16T04:35:07.068Z,102030.95
2019-02-16T04:40:12.847Z,102011.02
2019-02-16T04:45:18.934Z,102012.12
2019-02-16T04:50:24.868Z,102009.81
2019-02-16T04:55:30.873Z,102014.72
2019-02-16T05:00:36.827Z,102010.24
2019-02-16T05:05:42.382Z,102004.34
2019-02-16T05:10:48.991Z,102002.48
2019-02-16T05:15:54.633Z,102003.77
2019-02-16T05:21:02.004Z,101996.72
2019-02-16T05:26:08.548Z,101995.23
2019-02-16T05:31:14.181Z,101985.59
2019-02-16T05:36:21.077Z,101986.54
2019-02-16T05:41:26.998Z,101984.57
2019-02-16T05:46:32.589Z,101992.02
2019-02-16T05:51:38.342Z,101987.30
2019-02-16T05:56:44.744Z,101981.52
2019-02-16T06:01:54.228Z,101985.13
2019-02-16T06:06:59.854Z,101985.94
2019-02-16T06:12:05.626Z,101984.17
2019-02-16T06:17:13.913Z,101977.20
2019-02-16T06:22:19.656Z,101972.44
2019-02-16T06:27:26.009Z,101978.64
2019-02-16T06:32:32.520Z,101979.56
2019-02-16T06:37:38.739Z,101978.13
2019-02-16T06:42:44.700Z,101979.31
2019-02-16T06:47:50.603Z,101986.47
2019-02-16T06:52:56.493Z,101993.06
2019-02-16T06:58:03.101Z,101994.73
2019-02-16T07:03:08.838Z,101996.08
2019-02-16T07:08:15.841Z,101994.88
2019-02-16T07:13:22.123Z,101997.06
2019-02-16T07:18:29.354Z,101997.83
2019-02-16T07:23:35.035Z,101986.75
2019-02-16T07:28:41.141Z,101984.31
2019-02-16T07:33:46.875Z,101989.13
2019-02-16T07:38:53.380Z,101973.73
2019-02-16T07:44:02.232Z,101976.12
2019-02-16T07:49:25.503Z,101972.11
2019-02-16T07:54:41.775Z,101972.05
2019-02-16T07:59:52.121Z,101972.57
2019-02-16T08:04:59.513Z,101973.34
2019-02-16T08:10:19.938Z,101976.13
2019-02-16T08:15:45.208Z,101975.77
2019-02-16T08:20:53.690Z,101970.03
2019-02-16T08:26:01.513Z,101961.97
2019-02-16T08:31:09.230Z,101957.41
2019-02-16T08:36:19.602Z,101957.73
2019-02-16T08:41:32.952Z,101951.23
2019-02-16T08:46:45.482Z,101950.60
2019-02-16T08:51:54.526Z,101952.52
2019-02-16T08:57:11.415Z,101953.14
2019-02-16T09:02:25.661Z,101948.86
2019-02-16T09:07:49.712Z,101945.93
2019-02-16T09:12:58.318Z,101934.59
2019-02-16T09:18:18.133Z,101946.20
2019-02-16T09:23:31.453Z,101942.06
2019-02-16T09:28:55.020Z,101938.39
2019-02-16T09:34:02.266Z,101933.97
2019-02-16T09:39:25.178Z,101932.31
2019-02-16T09:44:35.777Z,101930.69
2019-02-16T09:49:43.096Z,101938.20
2019-02-16T09:54:51.299Z,101942.52
2019-02-16T09:59:59.262Z,101940.28
2019-02-16T10:05:14.489Z,101934.38
2019-02-16T10:10:47.380Z,101928.86
2019-02-16T10:16:00.876Z,101937.28
2019-02-16T10:21:12.934Z,101939.68
2019-02-16T10:26:22.490Z,101932.13
2019-02-16T10:31:37.206Z,101920.14
2019-02-16T10:36:45.532Z,101919.21
2019-02-16T10:42:00.024Z,101918.88
2019-02-16T10:47:13.514Z,101910.78
2019-02-16T10:52:26.578Z,101906.31
2019-02-16T10:57:49.055Z,101900.98
2019-02-16T11:03:00.585Z,101893.24
2019-02-16T11:08:12.037Z,101882.40
2019-02-16T11:13:20.365Z,101884.16
2019-02-16T11:18:45.450Z,101883.27
2019-02-16T11:24:01.705Z,101891.11
2019-02-16T11:29:12.797Z,101888.22
2019-02-16T11:34:33.738Z,101894.98
2019-02-16T11:39:43.394Z,101889.99
2019-02-16T11:44:51.339Z,101889.03
2019-02-16T11:50:08.701Z,101887.69
2019-02-16T11:55:34.237Z,101875.73
2019-02-16T12:00:43.361Z,101876.16
2019-02-16T12:05:52.020Z,101874.23
2019-02-16T12:11:20.138Z,101857.47
2019-02-16T12:16:33.666Z,101867.34
2019-02-16T12:21:43.020Z,101872.94
2019-02-16T12:26:57.321Z,101873.68
2019-02-16T12:32:06.140Z,101866.27
2019-02-16T12:37:15.865Z,101870.73
2019-02-16T12:42:35.997Z,101866.09
2019-02-16T12:47:53.822Z,101857.30
2019-02-16T12:53:04.827Z,101853.89
2019-02-16T12:58:12.199Z,101856.22
2019-02-16T13:03:23.881Z,101850.02
2019-02-16T13:08:39.410Z,101854.08
2019-02-16T13:13:52.088Z,101848.11
2019-02-16T13:19:02.663Z,101837.09
2019-02-16T13:24:13.231Z,101828.36
2019-02-16T13:29:30.231Z,101834.84
2019-02-16T13:34:38.610Z,101826.73
2019-02-16T13:39:56.169Z,101816.02
2019-02-16T13:45:08.500Z,101810.72
2019-02-16T13:50:17.580Z,101800.35
2019-02-16T13:55:42.559Z,101791.80
2019-02-16T14:00:51.022Z,101786.33
2019-02-16T14:06:10.537Z,101778.84
2019-02-16T14:11:25.072Z,101787.27
2019-02-16T14:16:39.037Z,101782.69
2019-02-16T14:21:47.257Z,101776.55
2019-02-16T14:26:55.285Z,101786.16
2019-02-16T14:32:05.821Z,101773.55
2019-02-16T14:37:34.077Z,101779.03
2019-02-16T14:42:46.019Z,101770.45
2019-02-16T14:47:59.733Z,101756.10
2019-02-16T14:53:09.005Z,101756.66
2019-02-16T14:58:18.009Z,101758.58
2019-02-16T15:03:27.263Z,101751.83
2019-02-16T15:08:35.252Z,101751.24
2019-02-16T15:13:45.128Z,101750.14
2019-02-16T15:18:54.594Z,101751.20
2019-02-16T15:24:04.911Z,101742.64
2019-02-16T15:29:15.286Z,101738.84
2019-02-16T15:34:24.922Z,101738.53
2019-02-16T15:39:33.433Z,101729.59
2019-02-16T15:44:43.148Z,101736.58
2019-02-16T15:50:13.401Z,101730.95
2019-02-16T15:55:25.357Z,101726.58
2019-02-16T16:00:35.883Z,101720.33
2019-02-16T16:05:44.989Z,101724.77
2019-02-16T16:10:53.575Z,101723.52
2019-02-16T16:16:02.326Z,101718.81
2019-02-16T16:21:14.852Z,101712.35
2019-02-16T16:26:32.955Z,101719.16
2019-02-16T16:31:41.761Z,101723.96
2019-02-16T16:36:50.754Z,101726.70
2019-02-16T16:42:08.668Z,101713.02
2019-02-16T16:47:18.284Z,101720.96
2019-02-16T16:52:25.745Z,101717.91
2019-02-16T16:57:37.261Z,101731.61
2019-02-16T17:03:02.618Z,101732.77
2019-02-16T17:08:10.656Z,101728.37
2019-02-16T17:13:30.402Z,101741.20
2019-02-16T17:18:43.806Z,101734.20
2019-02-16T17:23:54.458Z,101729.05
2019-02-16T17:29:05.932Z,101738.52
2019-02-16T17:34:13.568Z,101734.08
2019-02-16T17:39:39.852Z,101734.06
2019-02-16T17:44:50.478Z,101742.96
2019-02-16T17:50:00.925Z,101740.41
2019-02-16T17:55:12.917Z,101741.20
2019-02-16T18:00:24.338Z,101741.78
2019-02-16T18:05:49.194Z,101749.27
2019-02-16T18:11:13.612Z,101748.19
2019-02-16T18:16:20.829Z,101741.16
2019-02-16T18:21:34.893Z,101738.96
2019-02-16T18:26:56.624Z,101738.30
2019-02-16T18:32:17.271Z,101743.47
2019-02-16T18:37:31.994Z,101745.27
2019-02-16T18:42:49.524Z,101738.42
2019-02-16T18:48:02.891Z,101743.62
2019-02-16T18:53:16.935Z,101747.07
2019-02-16T18:58:24.796Z,101745.91
2019-02-16T19:03:51.773Z,101751.73
2019-02-16T19:08:59.722Z,101749.32
2019-02-16T19:14:10.033Z,101742.34
2019-02-16T19:19:20.654Z,101740.66
2019-02-16T19:24:28.949Z,101747.00
2019-02-16T19:29:36.542Z,101749.69
2019-02-16T19:35:00.685Z,101743.97
2019-02-16T19:40:15.098Z,101742.59
2019-02-16T19:45:28.635Z,101744.88
2019-02-16T19:50:52.836Z,101744.63
2019-02-16T19:56:06.688Z,101742.30
2019-02-16T20:01:16.054Z,101744.95
2019-02-16T20:06:23.381Z,101736.98
2019-02-16T20:11:44.137Z,101732.32
2019-02-16T20:16:56.642Z,101742.91
2019-02-16T20:22:23.844Z,101743.62
2019-02-16T20:27:45.447Z,101746.27
2019-02-16T20:32:58.631Z,101743.36
2019-02-16T20:38:11.279Z,101744.20
2019-02-16T20:43:19.270Z,101749.21
2019-02-16T20:48:45.349Z,101756.05
2019-02-16T20:53:58.655Z,101750.06
2019-02-16T20:59:09.865Z,101738.94
2019-02-16T21:04:17.604Z,101742.83
2019-02-16T21:09:28.222Z,101749.80
2019-02-16T21:14:51.901Z,101747.44
2019-02-16T21:20:07.941Z,101749.01
2019-02-16T21:25:30.193Z,101745.66
2019-02-16T21:30:40.192Z,101743.51
2019-02-16T21:36:00.105Z,101745.27
2019-02-16T21:41:25.761Z,101742.41
2019-02-16T21:46:33.533Z,101747.26
2019-02-16T21:51:54.749Z,101748.28
2019-02-16T21:57:02.640Z,101746.87
2019-02-16T22:02:11.649Z,101761.08
2019-02-16T22:07:19.245Z,101757.14
2019-02-16T22:12:26.795Z,101759.36
2019-02-16T22:17:34.029Z,101755.95
2019-02-16T22:22:39.673Z,101759.57
2019-02-16T22:27:45.587Z,101755.82
2019-02-16T22:32:53.633Z,101750.98
2019-02-16T22:38:00.283Z,101755.44
2019-02-16T22:43:06.164Z,101759.74
2019-02-16T22:48:13.263Z,101755.38
2019-02-16T22:53:20.575Z,101763.16
2019-02-16T22:58:29.103Z,101766.92
2019-02-16T23:03:35.244Z,101766.75
2019-02-16T23:08:40.839Z,101772.03
2019-02-16T23:13:47.624Z,101774.52
2019-02-16T23:18:54.537Z,101785.01
2019-02-16T23:24:02.023Z,101779.27
2019-02-16T23:29:07.632Z,101781.48
2019-02-16T23:34:13.776Z,101777.03
2019-02-16T23:39:19.611Z,101771.81
2019-02-16T23:44:25.405Z,101771.20
2019-02-16T23:49:31.115Z,101779.19
2019-02-16T23:54:38.441Z,101777.58
2019-02-16T23:59:45.501Z,101776.08
